Terminal Aerodrome Forecast
Issued by NWS

Home | Current Version | Previous Version | Text Only | Print | Product List | Glossary On
Versions: 1 2 3 4 5 6 7 8 9 10 11 12 13 14 15 16 17 18 19 20 21 22 23 24 25 26 27 28 29 30 31 32 33 34 35 36 37 38 39 40 41 42 43 44 45 46 47 48 49
000
FTUS44 KHGX 042320
TAFIAH
TAF
KIAH 042320Z 0500/0606 13012KT P6SM FEW060 SCT250
     FM050200 12010KT P6SM SCT250
     FM050900 13005KT P6SM VCSH SCT015
      TEMPO 0510/0514 BKN022
     FM051400 13013KT P6SM VCTS SCT025 BKN035CB PROB30 0514/0518
      -TSRA OVC030CB
     FM051800 14013KT P6SM VCTS BKN035CB OVC250
      TEMPO 0518/0521 TSRA
     FM060200 14009KT P6SM VCSH SCT035 BKN250=

USA.gov is the U.S. government's official web portal to all federal, state and local government web resources and services.